Lyndon, Pennsylvania
Current Conditions -  °F | °C
As of 2:53 AM on Friday 19 Dec 2014 (Local Time) from KLNS Reporting Station
Overcast Overcast  
Wind Chill: 27°   Ceiling: 2900
Heat Index: 34°   Visibility: 10mi
Dew Point: 24°   Wind: 9mph
Humidity: 67%   Direction: 290°WNW
Pressure: 30.05"   Gusts: NA
Location:  40.0158°N, 76.2452°W
Report Text: KLNS 190753Z AUTO 29008KT 10SM OVC029 01/M04 A3005 RMK AO2 SLP180 T00111044
Loading
Personal Weather Stations






























Interactive Weather Map New forecast layout! Learn more

10-Day Weather Forecast

Advertisements
Track Severe Weather on mobile